createdAt,value
2023-07-06T00:02:14.835Z,100157.00
2023-07-06T00:05:18.886Z,100160.81
2023-07-06T00:08:22.182Z,100154.88
2023-07-06T00:11:25.039Z,100166.16
2023-07-06T00:14:27.479Z,100179.94
2023-07-06T00:17:30.246Z,100194.59
2023-07-06T00:20:33.928Z,100185.19
2023-07-06T00:23:36.675Z,100182.13
2023-07-06T00:26:39.384Z,100177.88
2023-07-06T00:29:57.351Z,100175.56
2023-07-06T00:33:01.143Z,100164.25
2023-07-06T00:36:04.625Z,100173.25
2023-07-06T00:39:07.826Z,100165.91
2023-07-06T00:42:18.511Z,100159.00
2023-07-06T00:45:20.991Z,100162.28
2023-07-06T00:48:38.048Z,100161.22
2023-07-06T00:51:42.126Z,100161.53
2023-07-06T00:54:46.144Z,100162.28
2023-07-06T00:57:53.041Z,100164.19
2023-07-06T01:01:00.358Z,100160.31
2023-07-06T01:04:05.528Z,100153.03
2023-07-06T01:07:08.737Z,100151.56
2023-07-06T01:10:11.939Z,100150.06
2023-07-06T01:13:14.945Z,100156.25
2023-07-06T01:16:44.964Z,100157.81
2023-07-06T01:20:28.988Z,100157.03
2023-07-06T01:23:55.065Z,100166.28
2023-07-06T01:27:15.586Z,100165.34
2023-07-06T01:30:38.122Z,100159.59
2023-07-06T01:33:49.497Z,100162.09
2023-07-06T01:37:01.170Z,100161.38
2023-07-06T01:40:10.777Z,100158.22
2023-07-06T01:43:14.669Z,100156.75
2023-07-06T01:46:17.745Z,100162.09
2023-07-06T01:49:21.726Z,100160.53
2023-07-06T01:52:56.439Z,100160.56
2023-07-06T01:56:11.557Z,100166.38
2023-07-06T01:59:18.909Z,100159.88
2023-07-06T02:02:22.034Z,100161.41
2023-07-06T02:05:25.066Z,100159.47
2023-07-06T02:08:27.956Z,100159.03
2023-07-06T02:11:31.098Z,100162.47
2023-07-06T02:14:33.633Z,100165.56
2023-07-06T02:17:37.446Z,100164.25
2023-07-06T02:20:40.528Z,100182.25
2023-07-06T02:23:43.585Z,100184.00
2023-07-06T02:26:47.031Z,100182.31
2023-07-06T02:29:49.658Z,100181.69
2023-07-06T02:32:52.486Z,100192.91
2023-07-06T02:35:55.492Z,100203.38
2023-07-06T02:38:58.361Z,100200.72
2023-07-06T02:42:00.748Z,100197.41
2023-07-06T02:45:05.332Z,100201.75
2023-07-06T02:48:08.341Z,100191.66
2023-07-06T02:51:10.803Z,100191.81
2023-07-06T02:54:16.687Z,100195.59
2023-07-06T02:57:19.346Z,100196.75
2023-07-06T03:00:23.486Z,100178.63
2023-07-06T03:03:27.660Z,100176.75
2023-07-06T03:06:31.654Z,100192.97
2023-07-06T03:09:34.360Z,100195.25
2023-07-06T03:12:40.073Z,100203.28
2023-07-06T03:15:43.228Z,100197.09
2023-07-06T03:18:45.912Z,100201.31
2023-07-06T03:21:49.110Z,100203.22
2023-07-06T03:24:51.773Z,100198.25
2023-07-06T03:27:54.415Z,100203.28
2023-07-06T03:30:58.367Z,100202.72
2023-07-06T03:34:02.185Z,100203.47
2023-07-06T03:37:05.897Z,100207.88
2023-07-06T03:40:12.537Z,100221.47
2023-07-06T03:43:17.217Z,100222.59
2023-07-06T03:46:20.701Z,100228.00
2023-07-06T03:49:23.398Z,100229.91
2023-07-06T03:52:25.842Z,100225.84
2023-07-06T03:55:28.875Z,100227.41
2023-07-06T03:58:31.404Z,100226.91
2023-07-06T04:01:34.199Z,100226.66
2023-07-06T04:04:37.154Z,100235.09
2023-07-06T04:07:41.885Z,100240.81
2023-07-06T04:10:44.572Z,100241.50
2023-07-06T04:13:47.173Z,100241.84
2023-07-06T04:16:49.898Z,100233.28
2023-07-06T04:19:54.732Z,100238.91
2023-07-06T04:22:58.856Z,100245.06
2023-07-06T04:26:01.614Z,100244.81
2023-07-06T04:29:05.544Z,100254.25
2023-07-06T04:32:08.661Z,100256.28
2023-07-06T04:35:13.312Z,100247.03
2023-07-06T04:38:15.745Z,100245.09
2023-07-06T04:41:18.262Z,100251.00
2023-07-06T04:44:20.836Z,100252.75
2023-07-06T04:47:24.729Z,100253.41
2023-07-06T04:50:28.315Z,100248.59
2023-07-06T04:53:33.910Z,100247.06
2023-07-06T04:56:39.128Z,100250.97
2023-07-06T04:59:42.076Z,100254.50
2023-07-06T05:02:47.253Z,100251.81
2023-07-06T05:05:50.060Z,100252.72
2023-07-06T05:08:53.886Z,100253.94
2023-07-06T05:11:57.361Z,100249.31
2023-07-06T05:14:59.885Z,100248.63
2023-07-06T05:18:02.998Z,100245.94
2023-07-06T05:21:06.196Z,100246.00
2023-07-06T05:24:09.528Z,100246.06
2023-07-06T05:27:12.343Z,100244.19
2023-07-06T05:30:15.272Z,100238.44
2023-07-06T05:33:19.130Z,100237.31
2023-07-06T05:36:21.862Z,100250.16
2023-07-06T05:39:24.302Z,100241.63
2023-07-06T05:42:27.045Z,100251.72
2023-07-06T05:45:29.479Z,100255.19
2023-07-06T05:48:34.278Z,100268.38
2023-07-06T05:51:36.873Z,100271.06
2023-07-06T05:54:40.542Z,100272.25
2023-07-06T05:57:45.228Z,100273.41
2023-07-06T06:00:47.881Z,100276.13
2023-07-06T06:03:50.428Z,100272.53
2023-07-06T06:06:55.389Z,100267.75
2023-07-06T06:09:58.855Z,100272.84
2023-07-06T06:13:01.515Z,100264.19
2023-07-06T06:16:04.483Z,100266.78
2023-07-06T06:19:07.768Z,100264.31
2023-07-06T06:22:10.609Z,100261.06
2023-07-06T06:25:13.076Z,100264.06
2023-07-06T06:28:17.478Z,100266.81
2023-07-06T06:31:20.959Z,100268.56
2023-07-06T06:34:24.325Z,100255.38
2023-07-06T06:37:28.635Z,100268.78
2023-07-06T06:40:32.349Z,100261.59
2023-07-06T06:43:39.664Z,100267.94
2023-07-06T06:46:42.449Z,100267.84
2023-07-06T06:49:45.119Z,100272.31
2023-07-06T06:52:49.357Z,100269.78
2023-07-06T06:55:51.808Z,100276.16
2023-07-06T06:58:54.714Z,100265.66
2023-07-06T07:02:04.109Z,100272.19
2023-07-06T07:05:08.320Z,100266.19
2023-07-06T07:08:10.918Z,100265.53
2023-07-06T07:11:22.995Z,100254.47
2023-07-06T07:14:26.754Z,100261.72
2023-07-06T07:17:29.848Z,100265.19
2023-07-06T07:20:32.459Z,100257.09
2023-07-06T07:23:44.310Z,100256.88
2023-07-06T07:26:50.141Z,100255.75
2023-07-06T07:29:54.715Z,100262.09
2023-07-06T07:32:59.009Z,100258.59
2023-07-06T07:36:04.243Z,100261.00
2023-07-06T07:39:06.849Z,100259.31
2023-07-06T07:42:09.323Z,100255.34
2023-07-06T07:45:11.997Z,100253.84
2023-07-06T07:48:14.400Z,100254.50
2023-07-06T07:51:20.254Z,100256.00
2023-07-06T07:54:23.884Z,100252.28
2023-07-06T07:57:26.601Z,100258.09
2023-07-06T08:00:30.652Z,100249.88
2023-07-06T08:03:34.365Z,100242.47
2023-07-06T08:06:39.598Z,100237.56
2023-07-06T08:09:42.421Z,100234.06
2023-07-06T08:12:45.575Z,100239.09
2023-07-06T08:15:50.094Z,100244.81
2023-07-06T08:19:00.365Z,100237.56
2023-07-06T08:22:15.886Z,100243.69
2023-07-06T08:25:18.438Z,100248.94
2023-07-06T08:28:23.910Z,100244.72
2023-07-06T08:31:28.152Z,100238.38
2023-07-06T08:34:30.848Z,100241.84
2023-07-06T08:37:33.983Z,100239.06
2023-07-06T08:40:36.901Z,100238.34
2023-07-06T08:43:41.032Z,100239.78
2023-07-06T08:46:55.280Z,100233.38
2023-07-06T08:49:58.491Z,100226.63
2023-07-06T08:53:01.734Z,100232.16
2023-07-06T08:56:10.731Z,100231.47
2023-07-06T08:59:20.263Z,100232.09
2023-07-06T09:02:27.790Z,100236.19
2023-07-06T09:05:33.767Z,100227.66
2023-07-06T09:08:36.538Z,100220.25
2023-07-06T09:11:40.247Z,100226.56
2023-07-06T09:14:43.895Z,100229.53
2023-07-06T09:17:50.615Z,100232.31
2023-07-06T09:20:54.699Z,100247.19
2023-07-06T09:23:58.307Z,100287.75
2023-07-06T09:27:09.586Z,100330.81
2023-07-06T09:30:31.107Z,100318.16
2023-07-06T09:33:34.526Z,100311.75
2023-07-06T09:36:37.591Z,100316.69
2023-07-06T09:39:41.371Z,100320.22
2023-07-06T09:42:45.764Z,100330.56
2023-07-06T09:45:50.771Z,100345.72
2023-07-06T09:48:53.668Z,100346.19
2023-07-06T09:52:06.298Z,100348.47
2023-07-06T09:55:24.771Z,100337.38
2023-07-06T09:58:28.606Z,100344.69
2023-07-06T10:01:36.649Z,100333.56
2023-07-06T10:04:39.793Z,100345.69
2023-07-06T10:08:07.397Z,100352.19
2023-07-06T10:11:13.690Z,100365.13
2023-07-06T10:14:45.152Z,100384.50
2023-07-06T10:17:59.584Z,100392.19
2023-07-06T10:21:25.899Z,100401.72
2023-07-06T10:24:52.933Z,100399.41
2023-07-06T10:28:05.476Z,100390.28
2023-07-06T10:31:11.468Z,100396.59
2023-07-06T10:34:25.904Z,100413.72
2023-07-06T10:37:29.337Z,100416.34
2023-07-06T10:40:31.790Z,100423.41
2023-07-06T10:43:34.466Z,100414.41
2023-07-06T10:46:37.712Z,100428.22
2023-07-06T10:50:20.498Z,100425.69
2023-07-06T10:54:07.855Z,100428.75
2023-07-06T10:57:11.847Z,100431.47
2023-07-06T11:00:20.383Z,100439.81
2023-07-06T11:03:28.526Z,100470.94
2023-07-06T11:06:43.571Z,100489.31
2023-07-06T11:10:26.151Z,100495.63
2023-07-06T11:13:28.622Z,100484.53
2023-07-06T11:16:59.041Z,100450.44
2023-07-06T11:20:18.446Z,100421.19
2023-07-06T11:23:33.756Z,100392.09
2023-07-06T11:26:54.596Z,100385.91
2023-07-06T11:30:15.294Z,100373.56
2023-07-06T11:33:29.891Z,100366.59
2023-07-06T11:36:44.218Z,100353.88
2023-07-06T11:39:46.614Z,100333.03
2023-07-06T11:43:05.191Z,100333.44
2023-07-06T11:46:35.739Z,100348.56
2023-07-06T11:49:45.982Z,100352.84
2023-07-06T11:53:09.631Z,100369.88
2023-07-06T11:56:33.764Z,100359.38
2023-07-06T11:59:38.513Z,100356.38
2023-07-06T12:02:42.224Z,100361.47
2023-07-06T12:05:52.283Z,100356.41
2023-07-06T12:09:00.566Z,100362.19
2023-07-06T12:12:07.711Z,100362.22
2023-07-06T12:15:13.706Z,100366.50
2023-07-06T12:18:17.098Z,100347.06
2023-07-06T12:21:36.622Z,100352.50
2023-07-06T12:24:39.448Z,100353.94
2023-07-06T12:27:43.078Z,100355.44
2023-07-06T12:30:50.350Z,100354.75
2023-07-06T12:33:58.073Z,100363.91
2023-07-06T12:37:04.043Z,100363.09
2023-07-06T12:40:07.300Z,100369.22
2023-07-06T12:43:35.850Z,100376.25
2023-07-06T12:46:38.480Z,100371.56
2023-07-06T12:49:57.093Z,100370.22
2023-07-06T12:53:25.551Z,100378.06
2023-07-06T12:56:33.043Z,100383.84
2023-07-06T12:59:37.743Z,100373.72
2023-07-06T13:02:42.371Z,100380.91
2023-07-06T13:05:55.727Z,100374.44
2023-07-06T13:09:01.347Z,100371.31
2023-07-06T13:12:11.002Z,100373.31
2023-07-06T13:15:19.414Z,100363.41
2023-07-06T13:18:22.230Z,100368.88
2023-07-06T13:21:28.237Z,100359.03
2023-07-06T13:24:33.558Z,100360.69
2023-07-06T13:27:37.133Z,100355.88
2023-07-06T13:30:41.766Z,100362.69
2023-07-06T13:33:44.438Z,100353.25
2023-07-06T13:36:46.900Z,100345.19
2023-07-06T13:39:50.457Z,100348.56
2023-07-06T13:42:53.500Z,100346.44
2023-07-06T13:45:57.911Z,100346.44
2023-07-06T13:49:01.651Z,100341.22
2023-07-06T13:52:04.584Z,100342.69
2023-07-06T13:55:19.693Z,100334.91
2023-07-06T13:58:25.664Z,100352.00
2023-07-06T14:01:28.623Z,100340.22
2023-07-06T14:04:32.002Z,100351.44
2023-07-06T14:07:34.578Z,100340.16
2023-07-06T14:10:38.391Z,100345.50
2023-07-06T14:13:44.769Z,100342.69
2023-07-06T14:16:48.977Z,100342.41
2023-07-06T14:20:02.611Z,100337.09
2023-07-06T14:23:16.566Z,100337.47
2023-07-06T14:26:19.465Z,100339.69
2023-07-06T14:29:22.228Z,100329.84
2023-07-06T14:32:24.678Z,100332.25
2023-07-06T14:35:27.602Z,100327.47
2023-07-06T14:38:30.026Z,100321.50
2023-07-06T14:41:32.575Z,100307.41
2023-07-06T14:44:36.461Z,100313.50
2023-07-06T14:47:39.021Z,100314.78
2023-07-06T14:50:42.152Z,100300.34
2023-07-06T14:53:44.702Z,100305.88
2023-07-06T14:56:47.257Z,100307.81
2023-07-06T14:59:49.959Z,100316.03
2023-07-06T15:02:52.702Z,100321.13
2023-07-06T15:06:02.180Z,100316.38
2023-07-06T15:09:04.708Z,100314.25
2023-07-06T15:12:08.567Z,100308.59
2023-07-06T15:15:12.179Z,100313.09
2023-07-06T15:18:15.057Z,100318.88
2023-07-06T15:21:19.876Z,100308.19
2023-07-06T15:24:22.404Z,100311.94
2023-07-06T15:27:24.922Z,100318.41
2023-07-06T15:30:27.738Z,100316.44
2023-07-06T15:33:30.719Z,100323.22
2023-07-06T15:36:33.767Z,100323.56
2023-07-06T15:39:36.872Z,100324.28
2023-07-06T15:42:39.590Z,100328.13
2023-07-06T15:45:43.413Z,100326.78
2023-07-06T15:48:49.659Z,100329.09
2023-07-06T15:51:52.427Z,100325.31
2023-07-06T15:54:54.895Z,100329.75
2023-07-06T15:58:02.076Z,100319.53
2023-07-06T16:01:06.023Z,100314.41
2023-07-06T16:04:09.177Z,100317.38
2023-07-06T16:07:12.811Z,100320.38
2023-07-06T16:10:15.552Z,100327.72
2023-07-06T16:13:18.986Z,100324.31
2023-07-06T16:16:22.141Z,100324.50
2023-07-06T16:19:24.717Z,100322.00
2023-07-06T16:22:27.175Z,100325.97
2023-07-06T16:25:30.993Z,100330.75
2023-07-06T16:28:33.721Z,100318.06
2023-07-06T16:31:37.731Z,100333.28
2023-07-06T16:34:40.238Z,100332.44
2023-07-06T16:37:43.141Z,100329.22
2023-07-06T16:40:45.642Z,100332.72
2023-07-06T16:43:48.656Z,100330.81
2023-07-06T16:46:51.356Z,100331.31
2023-07-06T16:49:54.194Z,100334.59
2023-07-06T16:52:56.764Z,100339.41
2023-07-06T16:56:00.004Z,100342.38
2023-07-06T16:59:02.899Z,100340.50
2023-07-06T17:02:06.798Z,100344.72
2023-07-06T17:05:09.465Z,100338.84
2023-07-06T17:08:12.325Z,100337.34
2023-07-06T17:11:14.824Z,100341.97
2023-07-06T17:14:18.451Z,100344.00
2023-07-06T17:17:23.043Z,100341.78
2023-07-06T17:20:26.108Z,100351.41
2023-07-06T17:23:30.429Z,100344.09
2023-07-06T17:26:32.947Z,100345.69
2023-07-06T17:29:36.665Z,100345.75
2023-07-06T17:32:39.808Z,100350.09
2023-07-06T17:35:44.303Z,100348.81
2023-07-06T17:38:46.824Z,100355.16
2023-07-06T17:41:49.357Z,100354.31
2023-07-06T17:44:51.986Z,100357.09
2023-07-06T17:47:54.962Z,100364.19
2023-07-06T17:51:02.530Z,100373.91
2023-07-06T17:54:05.362Z,100372.75
2023-07-06T17:57:07.837Z,100379.06
2023-07-06T18:00:10.756Z,100381.41
2023-07-06T18:03:16.427Z,100390.44
2023-07-06T18:06:19.003Z,100393.56
2023-07-06T18:09:21.627Z,100388.53
2023-07-06T18:12:24.132Z,100394.00
2023-07-06T18:15:27.630Z,100393.56
2023-07-06T18:18:30.206Z,100399.81
2023-07-06T18:21:32.738Z,100395.53
2023-07-06T18:24:35.434Z,100399.44
2023-07-06T18:27:38.603Z,100406.03
2023-07-06T18:30:41.259Z,100412.25
2023-07-06T18:33:44.051Z,100413.38
2023-07-06T18:36:46.563Z,100413.72
2023-07-06T18:42:54.127Z,100415.25
2023-07-06T18:46:00.896Z,100415.22
2023-07-06T18:49:04.948Z,100417.53
2023-07-06T18:52:07.736Z,100418.31
2023-07-06T18:55:10.379Z,100424.34
2023-07-06T18:58:13.146Z,100427.88
2023-07-06T19:01:15.986Z,100440.59
2023-07-06T19:04:18.615Z,100439.38
2023-07-06T19:07:21.143Z,100445.22
2023-07-06T19:10:23.902Z,100447.56
2023-07-06T19:13:26.354Z,100452.22
2023-07-06T19:16:29.486Z,100451.41
2023-07-06T19:19:32.493Z,100463.81
2023-07-06T19:22:50.403Z,100461.44
2023-07-06T19:25:53.121Z,100466.34
2023-07-06T19:28:55.568Z,100463.19
2023-07-06T19:32:11.737Z,100468.53
2023-07-06T19:35:19.605Z,100465.81
2023-07-06T19:38:22.306Z,100474.22
2023-07-06T19:41:24.897Z,100467.88
2023-07-06T19:44:27.416Z,100465.59
2023-07-06T19:47:30.129Z,100467.91
2023-07-06T19:50:34.386Z,100473.63
2023-07-06T19:53:37.031Z,100471.31
2023-07-06T19:56:39.777Z,100467.72
2023-07-06T19:59:42.499Z,100475.38
2023-07-06T20:02:45.549Z,100476.16
2023-07-06T20:05:48.533Z,100480.19
2023-07-06T20:08:50.997Z,100477.72
2023-07-06T20:11:53.778Z,100479.69
2023-07-06T20:14:57.188Z,100480.28
2023-07-06T20:18:00.541Z,100471.00
2023-07-06T20:21:03.421Z,100477.66
2023-07-06T20:24:06.085Z,100474.88
2023-07-06T20:27:08.665Z,100477.41
2023-07-06T20:30:11.906Z,100474.03
2023-07-06T20:33:16.359Z,100472.75
2023-07-06T20:36:19.024Z,100467.28
2023-07-06T20:39:21.838Z,100469.69
2023-07-06T20:42:24.593Z,100467.69
2023-07-06T20:45:27.570Z,100470.09
2023-07-06T20:48:30.310Z,100468.47
2023-07-06T20:51:33.014Z,100472.22
2023-07-06T20:54:35.525Z,100481.34
2023-07-06T20:57:38.290Z,100483.50
2023-07-06T21:00:41.856Z,100482.13
2023-07-06T21:03:44.848Z,100487.34
2023-07-06T21:06:47.902Z,100483.34
2023-07-06T21:09:50.372Z,100486.00
2023-07-06T21:12:53.051Z,100485.16
2023-07-06T21:15:56.586Z,100482.09
2023-07-06T21:18:59.880Z,100486.88
2023-07-06T21:22:02.557Z,100483.22
2023-07-06T21:25:06.018Z,100488.59
2023-07-06T21:28:13.186Z,100494.75
2023-07-06T21:31:15.977Z,100500.25
2023-07-06T21:34:20.047Z,100503.00
2023-07-06T21:37:22.718Z,100488.94
2023-07-06T21:40:25.140Z,100489.44
2023-07-06T21:43:28.065Z,100491.44
2023-07-06T21:46:30.775Z,100490.00
2023-07-06T21:49:33.584Z,100492.69
2023-07-06T21:52:36.281Z,100491.69
2023-07-06T21:55:40.999Z,100494.84
2023-07-06T21:58:43.819Z,100490.97
2023-07-06T22:01:46.456Z,100499.84
2023-07-06T22:04:50.646Z,100496.09
2023-07-06T22:07:53.349Z,100492.44
2023-07-06T22:10:57.094Z,100491.06
2023-07-06T22:14:00.376Z,100494.03
2023-07-06T22:17:02.952Z,100489.44
2023-07-06T22:20:06.221Z,100499.19
2023-07-06T22:23:08.919Z,100491.19
2023-07-06T22:26:12.495Z,100501.81
2023-07-06T22:29:15.344Z,100505.44
2023-07-06T22:32:17.911Z,100507.28
2023-07-06T22:35:22.548Z,100506.22
2023-07-06T22:38:26.805Z,100505.94
2023-07-06T22:41:31.056Z,100513.13
2023-07-06T22:44:33.716Z,100514.09
2023-07-06T22:47:36.355Z,100512.69
2023-07-06T22:50:38.908Z,100517.50
2023-07-06T22:53:41.640Z,100513.94
2023-07-06T22:56:44.139Z,100515.16
2023-07-06T22:59:46.884Z,100523.84
2023-07-06T23:02:49.644Z,100519.53
2023-07-06T23:06:03.265Z,100517.94
2023-07-06T23:09:08.169Z,100517.16
2023-07-06T23:12:10.699Z,100522.88
2023-07-06T23:15:13.478Z,100526.31
2023-07-06T23:18:15.952Z,100524.66
2023-07-06T23:21:18.907Z,100529.41
2023-07-06T23:24:21.443Z,100533.19
2023-07-06T23:27:23.911Z,100524.88
2023-07-06T23:30:26.513Z,100521.97
2023-07-06T23:33:30.937Z,100521.63
2023-07-06T23:36:33.485Z,100528.53
2023-07-06T23:39:37.543Z,100526.50
2023-07-06T23:42:40.340Z,100531.81
2023-07-06T23:45:43.438Z,100528.06
2023-07-06T23:48:50.248Z,100524.75
2023-07-06T23:51:53.062Z,100526.63
2023-07-06T23:54:55.795Z,100534.31
2023-07-06T23:57:58.515Z,100531.09
